SKCLSPQT

Guest
Details From SKCL - Alfonso Bonilla Aragon Intl
To SPQT - Coronel Francisco Secada Vignetta Intl
Flight Number -
Tags Generated
Created
Modified
Stats Distance 477 nm / 883 km
Max Altitude 0 ft / 0 m
Waypoints 4
Social Downloads 0
Likes 0
Share VATSIM

Download

Looking for another format? Having issues loading an existing format? Contact us
Advertisement - Login to hide

Notes

Generated

Route

SKCL RIOKA PE SPQT

ID Type Via Altitude Latitude Longitude Leg Dist Tot Dist Heading (true) Name
O SKCL APT - 0 ft / 0 m 3.52990˚ -76.38392˚ - 0 nm - -
RIOKA FIX - 0 ft / 0 m 0.21806˚ -74.97306˚ 216 nm 216 nm 157° / 157° -
PE NDB - 0 ft / 0 m -3.73139˚ -73.33250˚ 256 nm 472 nm 157° / 157° EC NDB
O SPQT APT - 0 ft / 0 m -3.79095˚ -73.31821˚ 3 nm 476 nm 167° / 167° -

Altitude Profile

Advertisement - Login to hide

Weather


0- 5 10 15 20 25 30 35+ Temperature / ° C

Clouds and Precipitation
Forecast for 2018-05-26 00:00 UTC. Updated 4 hours ago

Ground ~20,000 ft ~40,000 ft Winds

SKCL

Details ICAO SKCL (CLO)
Name ALFONSO BONILLA ARAGON INTL
Region Colombia
Timezone America/Bogota (UTC-5.0)
Stats Elevation 3,162 ft / 964 m (AMSL)
Location 3.543221° -76.381587°
Runways 1
Magnetic Variation 5.649° W

METAR

SKCL 260200Z 03004KT 9999 VCSH SCT030 BKN120 22/20 A2999 REDZRMK VCSH SE/S/SW

Decode

TAF

Not found

Departure Runways

ID Width Length Bearing (true) Bearing (mag) Surface Threshold Offset Overrun Length
01 148 ft / 45 m 9,869 ft / 3,008 m 9.91° 15.56° Asphalt 0 ft / 0 m 50 ft / 15 m
19 148 ft / 45 m 9,869 ft / 3,008 m 189.91° 195.56° Asphalt 0 ft / 0 m 65 ft / 20 m

SPQT

Details ICAO SPQT (IQT)
Name CORONEL FRANCISCO SECADA VIGNETTA INTL
Region Peru
Timezone America/Lima (UTC-5.0)
Stats Elevation 306 ft / 93 m (AMSL)
Location -3.784739° -73.308806°
Runways 1
Magnetic Variation 6.636° W

METAR

SPQT 260200Z 00000KT 9999 FEW020 SCT100 25/23 Q1014 NOSIG RMK PP000

Decode

TAF

TAF SPQT 252300Z 2600/2624 10003KT 9999 SCT020 SCT100 TX29/2620Z TN23/2611Z TEMPO 2609/2612 20004KT 5000 -RADZ BR BKN008 OVC070 BECMG 2613/2615 32003KT BKN015 BKN100 TEMPO 2622/2624 18003KT 8000 VCSH BKN012 FEW020TCU BKN100

Decode

Destination Runways

ID Width Length Bearing (true) Bearing (mag) Surface Threshold Offset Overrun Length
06 148 ft / 45 m 8,214 ft / 2,504 m 56.53° 63.17° Concrete 0 ft / 0 m 50 ft / 15 m
24 148 ft / 45 m 8,214 ft / 2,504 m 236.52° 243.16° Concrete 0 ft / 0 m 50 ft / 15 m

Approach Navaids

Runway Type Ident Frequency Range Bearing (true) Bearing (mag) Slope Elevation
06 Localiser ISEC 109.70 MHz 18 nm / 33 km 56.52° 63.16° - 306 ft / 93 m (AMSL)
06 Glidescope ISEC 109.70 MHz 10 nm / 19 km 56.52° 63.16° 3.00° 306 ft / 93 m (AMSL)
06 DME ISEC 109.70 MHz 18 nm / 33 km - - - 306 ft / 93 m (AMSL)